sensor_id;sensor_type;location;lat;lon;timestamp;P1;durP1;ratioP1;P2;durP2;ratioP2
17983;SDS011;9117;52.420;20.728;2023-05-10T00:01:38;15.40;;;6.40;;
17983;SDS011;9117;52.420;20.728;2023-05-10T00:04:06;12.85;;;6.10;;
17983;SDS011;9117;52.420;20.728;2023-05-10T00:06:35;12.30;;;6.72;;
17983;SDS011;9117;52.420;20.728;2023-05-10T00:09:03;13.60;;;6.90;;
17983;SDS011;9117;52.420;20.728;2023-05-10T00:11:32;10.52;;;6.28;;
17983;SDS011;9117;52.420;20.728;2023-05-10T00:14:01;12.90;;;6.85;;
17983;SDS011;9117;52.420;20.728;2023-05-10T00:16:29;13.35;;;6.65;;
17983;SDS011;9117;52.420;20.728;2023-05-10T00:18:57;15.50;;;6.75;;
17983;SDS011;9117;52.420;20.728;2023-05-10T00:21:25;17.00;;;6.90;;
17983;SDS011;9117;52.420;20.728;2023-05-10T00:23:54;16.02;;;6.63;;
17983;SDS011;9117;52.420;20.728;2023-05-10T00:26:22;15.27;;;6.65;;
17983;SDS011;9117;52.420;20.728;2023-05-10T00:28:52;14.23;;;6.20;;
17983;SDS011;9117;52.420;20.728;2023-05-10T00:31:20;15.75;;;6.95;;
17983;SDS011;9117;52.420;20.728;2023-05-10T00:33:48;14.47;;;6.27;;
17983;SDS011;9117;52.420;20.728;2023-05-10T00:36:16;14.13;;;6.53;;
17983;SDS011;9117;52.420;20.728;2023-05-10T00:38:44;11.80;;;6.35;;
17983;SDS011;9117;52.420;20.728;2023-05-10T00:41:13;11.13;;;6.63;;
17983;SDS011;9117;52.420;20.728;2023-05-10T00:43:41;12.33;;;7.03;;
17983;SDS011;9117;52.420;20.728;2023-05-10T00:46:11;11.48;;;6.40;;
17983;SDS011;9117;52.420;20.728;2023-05-10T00:48:41;12.38;;;6.55;;
17983;SDS011;9117;52.420;20.728;2023-05-10T00:51:10;12.18;;;6.68;;
17983;SDS011;9117;52.420;20.728;2023-05-10T00:53:38;13.93;;;6.63;;
17983;SDS011;9117;52.420;20.728;2023-05-10T00:56:07;13.90;;;6.38;;
17983;SDS011;9117;52.420;20.728;2023-05-10T00:58:35;14.57;;;6.80;;
17983;SDS011;9117;52.420;20.728;2023-05-10T01:01:04;11.30;;;6.83;;
17983;SDS011;9117;52.420;20.728;2023-05-10T01:03:34;13.15;;;5.95;;
17983;SDS011;9117;52.420;20.728;2023-05-10T01:06:04;12.20;;;6.13;;
17983;SDS011;9117;52.420;20.728;2023-05-10T01:08:33;19.07;;;6.50;;
17983;SDS011;9117;52.420;20.728;2023-05-10T01:11:01;12.65;;;6.00;;
17983;SDS011;9117;52.420;20.728;2023-05-10T01:13:30;13.38;;;6.70;;
17983;SDS011;9117;52.420;20.728;2023-05-10T01:16:02;12.27;;;6.33;;
17983;SDS011;9117;52.420;20.728;2023-05-10T01:18:31;12.50;;;6.05;;
17983;SDS011;9117;52.420;20.728;2023-05-10T01:21:06;16.90;;;6.90;;
17983;SDS011;9117;52.420;20.728;2023-05-10T01:23:45;11.10;;;6.03;;
17983;SDS011;9117;52.420;20.728;2023-05-10T01:26:44;11.10;;;5.90;;
17983;SDS011;9117;52.420;20.728;2023-05-10T01:29:37;12.20;;;6.05;;
17983;SDS011;9117;52.420;20.728;2023-05-10T01:32:43;14.33;;;6.60;;
17983;SDS011;9117;52.420;20.728;2023-05-10T01:35:17;13.70;;;6.27;;
17983;SDS011;9117;52.420;20.728;2023-05-10T01:37:50;13.57;;;6.40;;
17983;SDS011;9117;52.420;20.728;2023-05-10T01:40:29;11.50;;;6.37;;
17983;SDS011;9117;52.420;20.728;2023-05-10T01:43:02;12.00;;;5.97;;
17983;SDS011;9117;52.420;20.728;2023-05-10T01:45:33;12.57;;;5.97;;
17983;SDS011;9117;52.420;20.728;2023-05-10T01:48:11;12.67;;;6.93;;
17983;SDS011;9117;52.420;20.728;2023-05-10T01:50:41;12.93;;;6.00;;
17983;SDS011;9117;52.420;20.728;2023-05-10T01:53:12;11.80;;;5.87;;
17983;SDS011;9117;52.420;20.728;2023-05-10T01:55:46;12.03;;;5.43;;
17983;SDS011;9117;52.420;20.728;2023-05-10T01:58:17;13.23;;;5.83;;
17983;SDS011;9117;52.420;20.728;2023-05-10T02:00:48;10.60;;;6.03;;
17983;SDS011;9117;52.420;20.728;2023-05-10T02:03:20;14.57;;;6.33;;
17983;SDS011;9117;52.420;20.728;2023-05-10T02:05:51;12.83;;;6.03;;
17983;SDS011;9117;52.420;20.728;2023-05-10T02:08:22;11.97;;;6.67;;
17983;SDS011;9117;52.420;20.728;2023-05-10T02:10:52;14.47;;;6.03;;
17983;SDS011;9117;52.420;20.728;2023-05-10T02:13:22;13.03;;;6.70;;
17983;SDS011;9117;52.420;20.728;2023-05-10T02:15:52;13.73;;;5.93;;
17983;SDS011;9117;52.420;20.728;2023-05-10T02:18:23;11.37;;;6.37;;
17983;SDS011;9117;52.420;20.728;2023-05-10T02:20:53;14.43;;;6.40;;
17983;SDS011;9117;52.420;20.728;2023-05-10T02:23:22;13.37;;;6.57;;
17983;SDS011;9117;52.420;20.728;2023-05-10T02:25:53;12.77;;;6.20;;
17983;SDS011;9117;52.420;20.728;2023-05-10T02:28:22;10.03;;;6.07;;
17983;SDS011;9117;52.420;20.728;2023-05-10T02:30:52;11.27;;;5.80;;
17983;SDS011;9117;52.420;20.728;2023-05-10T02:33:22;13.37;;;6.20;;
17983;SDS011;9117;52.420;20.728;2023-05-10T02:35:51;10.87;;;6.03;;
17983;SDS011;9117;52.420;20.728;2023-05-10T02:38:20;12.93;;;6.23;;
17983;SDS011;9117;52.420;20.728;2023-05-10T02:40:50;11.57;;;6.20;;
17983;SDS011;9117;52.420;20.728;2023-05-10T02:43:18;12.53;;;5.90;;
17983;SDS011;9117;52.420;20.728;2023-05-10T02:45:51;13.63;;;6.13;;
17983;SDS011;9117;52.420;20.728;2023-05-10T02:48:20;9.90;;;6.23;;
17983;SDS011;9117;52.420;20.728;2023-05-10T02:50:50;12.83;;;6.63;;
17983;SDS011;9117;52.420;20.728;2023-05-10T02:53:22;15.67;;;6.53;;
17983;SDS011;9117;52.420;20.728;2023-05-10T02:55:58;20.03;;;5.97;;
17983;SDS011;9117;52.420;20.728;2023-05-10T02:58:30;14.47;;;6.57;;
17983;SDS011;9117;52.420;20.728;2023-05-10T03:00:59;14.80;;;6.10;;
17983;SDS011;9117;52.420;20.728;2023-05-10T03:03:27;12.17;;;6.30;;
17983;SDS011;9117;52.420;20.728;2023-05-10T03:05:57;13.13;;;6.60;;
17983;SDS011;9117;52.420;20.728;2023-05-10T03:08:25;13.63;;;6.43;;
17983;SDS011;9117;52.420;20.728;2023-05-10T03:11:06;19.23;;;8.20;;
17983;SDS011;9117;52.420;20.728;2023-05-10T03:13:45;13.70;;;6.70;;
17983;SDS011;9117;52.420;20.728;2023-05-10T03:16:23;13.53;;;6.60;;
17983;SDS011;9117;52.420;20.728;2023-05-10T03:18:56;15.20;;;6.07;;
17983;SDS011;9117;52.420;20.728;2023-05-10T03:21:34;11.37;;;5.90;;
17983;SDS011;9117;52.420;20.728;2023-05-10T03:24:08;11.07;;;5.60;;
17983;SDS011;9117;52.420;20.728;2023-05-10T03:26:41;12.47;;;7.07;;
17983;SDS011;9117;52.420;20.728;2023-05-10T03:29:12;15.83;;;6.30;;
17983;SDS011;9117;52.420;20.728;2023-05-10T03:31:42;17.20;;;6.87;;
17983;SDS011;9117;52.420;20.728;2023-05-10T03:34:10;17.40;;;6.80;;
17983;SDS011;9117;52.420;20.728;2023-05-10T03:36:40;14.60;;;7.23;;
17983;SDS011;9117;52.420;20.728;2023-05-10T03:39:08;11.27;;;6.47;;
17983;SDS011;9117;52.420;20.728;2023-05-10T03:41:36;13.83;;;6.47;;
17983;SDS011;9117;52.420;20.728;2023-05-10T03:44:04;13.43;;;6.57;;
17983;SDS011;9117;52.420;20.728;2023-05-10T03:46:33;13.70;;;6.70;;
17983;SDS011;9117;52.420;20.728;2023-05-10T03:49:01;17.47;;;6.37;;
17983;SDS011;9117;52.420;20.728;2023-05-10T03:51:29;16.53;;;6.43;;
17983;SDS011;9117;52.420;20.728;2023-05-10T03:53:59;13.30;;;6.10;;
17983;SDS011;9117;52.420;20.728;2023-05-10T03:56:27;10.77;;;5.83;;
17983;SDS011;9117;52.420;20.728;2023-05-10T03:58:55;14.90;;;6.10;;
17983;SDS011;9117;52.420;20.728;2023-05-10T04:01:24;15.03;;;5.90;;
17983;SDS011;9117;52.420;20.728;2023-05-10T04:03:52;13.00;;;6.20;;
17983;SDS011;9117;52.420;20.728;2023-05-10T04:06:20;18.47;;;5.93;;
17983;SDS011;9117;52.420;20.728;2023-05-10T04:08:48;15.57;;;6.00;;
17983;SDS011;9117;52.420;20.728;2023-05-10T04:11:18;14.30;;;6.10;;
17983;SDS011;9117;52.420;20.728;2023-05-10T04:13:48;12.95;;;6.22;;
17983;SDS011;9117;52.420;20.728;2023-05-10T04:16:16;9.27;;;5.33;;
17983;SDS011;9117;52.420;20.728;2023-05-10T04:18:44;16.87;;;5.53;;
17983;SDS011;9117;52.420;20.728;2023-05-10T04:21:12;12.20;;;5.95;;
17983;SDS011;9117;52.420;20.728;2023-05-10T04:23:41;11.98;;;5.70;;
17983;SDS011;9117;52.420;20.728;2023-05-10T04:26:09;11.53;;;5.50;;
17983;SDS011;9117;52.420;20.728;2023-05-10T04:28:38;10.98;;;5.60;;
17983;SDS011;9117;52.420;20.728;2023-05-10T04:31:07;15.93;;;5.75;;
17983;SDS011;9117;52.420;20.728;2023-05-10T04:33:36;11.57;;;5.10;;
17983;SDS011;9117;52.420;20.728;2023-05-10T04:36:05;14.55;;;6.05;;
17983;SDS011;9117;52.420;20.728;2023-05-10T04:38:33;11.68;;;5.70;;
17983;SDS011;9117;52.420;20.728;2023-05-10T04:41:05;10.55;;;5.47;;
17983;SDS011;9117;52.420;20.728;2023-05-10T04:43:34;15.82;;;6.38;;
17983;SDS011;9117;52.420;20.728;2023-05-10T04:46:04;8.07;;;5.50;;
17983;SDS011;9117;52.420;20.728;2023-05-10T04:48:33;12.48;;;5.32;;
17983;SDS011;9117;52.420;20.728;2023-05-10T04:51:01;9.57;;;4.68;;
17983;SDS011;9117;52.420;20.728;2023-05-10T04:53:31;14.10;;;4.97;;
17983;SDS011;9117;52.420;20.728;2023-05-10T04:55:59;11.98;;;5.72;;
17983;SDS011;9117;52.420;20.728;2023-05-10T04:58:27;12.60;;;6.90;;
17983;SDS011;9117;52.420;20.728;2023-05-10T05:00:55;11.82;;;5.32;;
17983;SDS011;9117;52.420;20.728;2023-05-10T05:03:25;10.80;;;4.93;;
17983;SDS011;9117;52.420;20.728;2023-05-10T05:05:53;9.68;;;4.97;;
17983;SDS011;9117;52.420;20.728;2023-05-10T05:08:21;9.30;;;5.13;;
17983;SDS011;9117;52.420;20.728;2023-05-10T05:10:50;9.98;;;5.20;;
17983;SDS011;9117;52.420;20.728;2023-05-10T05:13:18;9.18;;;5.22;;
17983;SDS011;9117;52.420;20.728;2023-05-10T05:15:46;12.10;;;5.53;;
17983;SDS011;9117;52.420;20.728;2023-05-10T05:18:14;12.00;;;5.28;;
17983;SDS011;9117;52.420;20.728;2023-05-10T05:20:44;11.18;;;4.82;;
17983;SDS011;9117;52.420;20.728;2023-05-10T05:23:12;11.80;;;5.32;;
17983;SDS011;9117;52.420;20.728;2023-05-10T05:25:40;8.10;;;4.80;;
17983;SDS011;9117;52.420;20.728;2023-05-10T05:28:09;11.13;;;4.70;;
17983;SDS011;9117;52.420;20.728;2023-05-10T05:30:37;10.88;;;5.07;;
17983;SDS011;9117;52.420;20.728;2023-05-10T05:33:05;10.35;;;5.47;;
17983;SDS011;9117;52.420;20.728;2023-05-10T05:35:33;10.88;;;4.38;;
17983;SDS011;9117;52.420;20.728;2023-05-10T05:38:03;10.45;;;4.97;;
17983;SDS011;9117;52.420;20.728;2023-05-10T05:40:31;9.07;;;4.43;;
17983;SDS011;9117;52.420;20.728;2023-05-10T05:42:59;9.18;;;4.80;;
17983;SDS011;9117;52.420;20.728;2023-05-10T05:45:27;9.75;;;4.65;;
17983;SDS011;9117;52.420;20.728;2023-05-10T05:47:56;9.23;;;4.70;;
17983;SDS011;9117;52.420;20.728;2023-05-10T05:50:25;9.15;;;4.32;;
17983;SDS011;9117;52.420;20.728;2023-05-10T05:52:53;10.40;;;4.78;;
17983;SDS011;9117;52.420;20.728;2023-05-10T05:55:22;7.03;;;4.18;;
17983;SDS011;9117;52.420;20.728;2023-05-10T05:57:52;10.70;;;4.43;;
17983;SDS011;9117;52.420;20.728;2023-05-10T06:00:20;14.10;;;4.40;;
17983;SDS011;9117;52.420;20.728;2023-05-10T06:02:48;10.52;;;4.28;;
17983;SDS011;9117;52.420;20.728;2023-05-10T06:05:17;13.95;;;5.75;;
17983;SDS011;9117;52.420;20.728;2023-05-10T06:07:46;7.25;;;4.18;;
17983;SDS011;9117;52.420;20.728;2023-05-10T06:10:14;14.63;;;5.55;;
17983;SDS011;9117;52.420;20.728;2023-05-10T06:12:44;7.50;;;4.22;;
17983;SDS011;9117;52.420;20.728;2023-05-10T06:15:12;10.65;;;4.15;;
17983;SDS011;9117;52.420;20.728;2023-05-10T06:17:40;12.57;;;4.03;;
17983;SDS011;9117;52.420;20.728;2023-05-10T06:20:10;9.85;;;3.63;;
17983;SDS011;9117;52.420;20.728;2023-05-10T06:22:39;7.80;;;5.05;;
17983;SDS011;9117;52.420;20.728;2023-05-10T06:25:07;8.98;;;4.63;;
17983;SDS011;9117;52.420;20.728;2023-05-10T06:27:36;8.43;;;3.92;;
17983;SDS011;9117;52.420;20.728;2023-05-10T06:30:07;9.48;;;3.70;;
17983;SDS011;9117;52.420;20.728;2023-05-10T06:32:38;8.88;;;4.43;;
17983;SDS011;9117;52.420;20.728;2023-05-10T06:35:07;8.70;;;4.35;;
17983;SDS011;9117;52.420;20.728;2023-05-10T06:37:36;7.63;;;4.20;;
17983;SDS011;9117;52.420;20.728;2023-05-10T06:40:05;8.23;;;3.60;;
17983;SDS011;9117;52.420;20.728;2023-05-10T06:42:34;8.18;;;3.88;;
17983;SDS011;9117;52.420;20.728;2023-05-10T06:45:02;10.45;;;3.58;;
17983;SDS011;9117;52.420;20.728;2023-05-10T06:47:33;5.50;;;3.30;;
17983;SDS011;9117;52.420;20.728;2023-05-10T06:50:04;12.20;;;3.65;;
17983;SDS011;9117;52.420;20.728;2023-05-10T06:52:33;9.52;;;3.17;;
17983;SDS011;9117;52.420;20.728;2023-05-10T06:55:01;9.00;;;3.95;;
17983;SDS011;9117;52.420;20.728;2023-05-10T06:57:30;10.63;;;3.75;;
17983;SDS011;9117;52.420;20.728;2023-05-10T06:59:59;6.32;;;3.13;;
17983;SDS011;9117;52.420;20.728;2023-05-10T07:02:27;8.23;;;3.10;;
17983;SDS011;9117;52.420;20.728;2023-05-10T07:04:57;7.88;;;3.78;;
17983;SDS011;9117;52.420;20.728;2023-05-10T07:07:28;6.78;;;3.22;;
17983;SDS011;9117;52.420;20.728;2023-05-10T07:09:56;8.93;;;3.22;;
17983;SDS011;9117;52.420;20.728;2023-05-10T07:12:25;8.98;;;3.13;;
17983;SDS011;9117;52.420;20.728;2023-05-10T07:14:53;8.57;;;3.15;;
17983;SDS011;9117;52.420;20.728;2023-05-10T07:17:21;7.90;;;2.58;;
17983;SDS011;9117;52.420;20.728;2023-05-10T07:19:49;3.92;;;2.40;;
17983;SDS011;9117;52.420;20.728;2023-05-10T07:22:19;4.00;;;1.90;;
17983;SDS011;9117;52.420;20.728;2023-05-10T07:24:47;4.55;;;2.60;;
17983;SDS011;9117;52.420;20.728;2023-05-10T07:27:15;4.55;;;2.65;;
17983;SDS011;9117;52.420;20.728;2023-05-10T07:29:43;5.03;;;2.78;;
17983;SDS011;9117;52.420;20.728;2023-05-10T07:32:12;4.97;;;2.17;;
17983;SDS011;9117;52.420;20.728;2023-05-10T07:34:40;7.35;;;2.47;;
17983;SDS011;9117;52.420;20.728;2023-05-10T07:37:08;5.55;;;2.20;;
17983;SDS011;9117;52.420;20.728;2023-05-10T07:39:39;5.15;;;2.63;;
17983;SDS011;9117;52.420;20.728;2023-05-10T07:42:07;10.43;;;2.72;;
17983;SDS011;9117;52.420;20.728;2023-05-10T07:44:35;5.88;;;2.38;;
17983;SDS011;9117;52.420;20.728;2023-05-10T07:47:03;8.43;;;2.20;;
17983;SDS011;9117;52.420;20.728;2023-05-10T07:49:31;4.20;;;2.30;;
17983;SDS011;9117;52.420;20.728;2023-05-10T07:51:59;6.65;;;2.20;;
17983;SDS011;9117;52.420;20.728;2023-05-10T07:54:28;3.05;;;1.90;;
17983;SDS011;9117;52.420;20.728;2023-05-10T07:56:57;4.53;;;1.80;;
17983;SDS011;9117;52.420;20.728;2023-05-10T07:59:26;6.18;;;2.40;;
17983;SDS011;9117;52.420;20.728;2023-05-10T08:01:54;4.50;;;2.10;;
17983;SDS011;9117;52.420;20.728;2023-05-10T08:04:22;3.22;;;1.77;;
17983;SDS011;9117;52.420;20.728;2023-05-10T08:06:50;6.28;;;2.00;;
17983;SDS011;9117;52.420;20.728;2023-05-10T08:09:18;4.80;;;2.08;;
17983;SDS011;9117;52.420;20.728;2023-05-10T08:11:50;4.85;;;2.15;;
17983;SDS011;9117;52.420;20.728;2023-05-10T08:14:19;6.57;;;2.05;;
17983;SDS011;9117;52.420;20.728;2023-05-10T08:16:48;7.97;;;2.75;;
17983;SDS011;9117;52.420;20.728;2023-05-10T08:19:16;5.07;;;2.15;;
17983;SDS011;9117;52.420;20.728;2023-05-10T08:21:45;4.47;;;2.22;;
17983;SDS011;9117;52.420;20.728;2023-05-10T08:24:14;5.97;;;2.17;;
17983;SDS011;9117;52.420;20.728;2023-05-10T08:26:42;6.00;;;2.33;;
17983;SDS011;9117;52.420;20.728;2023-05-10T08:29:10;9.57;;;2.25;;
17983;SDS011;9117;52.420;20.728;2023-05-10T08:31:43;6.30;;;2.28;;
17983;SDS011;9117;52.420;20.728;2023-05-10T08:34:11;3.75;;;2.10;;
17983;SDS011;9117;52.420;20.728;2023-05-10T08:36:39;4.85;;;2.22;;
17983;SDS011;9117;52.420;20.728;2023-05-10T08:39:07;3.53;;;2.30;;
17983;SDS011;9117;52.420;20.728;2023-05-10T08:41:52;3.28;;;2.05;;
17983;SDS011;9117;52.420;20.728;2023-05-10T08:44:25;4.78;;;2.20;;
17983;SDS011;9117;52.420;20.728;2023-05-10T08:46:55;5.55;;;2.55;;
17983;SDS011;9117;52.420;20.728;2023-05-10T08:49:24;4.15;;;1.90;;
17983;SDS011;9117;52.420;20.728;2023-05-10T08:51:55;6.10;;;2.20;;
17983;SDS011;9117;52.420;20.728;2023-05-10T08:54:24;5.43;;;2.40;;
17983;SDS011;9117;52.420;20.728;2023-05-10T08:56:53;6.00;;;1.85;;
17983;SDS011;9117;52.420;20.728;2023-05-10T08:59:21;4.68;;;2.17;;
17983;SDS011;9117;52.420;20.728;2023-05-10T09:01:50;7.30;;;2.50;;
17983;SDS011;9117;52.420;20.728;2023-05-10T09:04:21;4.75;;;2.42;;
17983;SDS011;9117;52.420;20.728;2023-05-10T09:06:50;5.65;;;2.35;;
17983;SDS011;9117;52.420;20.728;2023-05-10T09:09:18;2.75;;;1.90;;
17983;SDS011;9117;52.420;20.728;2023-05-10T09:11:47;5.20;;;1.92;;
17983;SDS011;9117;52.420;20.728;2023-05-10T09:14:16;6.82;;;2.45;;
17983;SDS011;9117;52.420;20.728;2023-05-10T09:16:44;7.35;;;2.35;;
17983;SDS011;9117;52.420;20.728;2023-05-10T09:19:13;5.40;;;1.40;;
17983;SDS011;9117;52.420;20.728;2023-05-10T09:21:42;4.18;;;2.28;;
17983;SDS011;9117;52.420;20.728;2023-05-10T09:24:11;3.63;;;2.10;;
17983;SDS011;9117;52.420;20.728;2023-05-10T09:26:45;4.18;;;2.38;;
17983;SDS011;9117;52.420;20.728;2023-05-10T09:29:15;9.15;;;2.17;;
17983;SDS011;9117;52.420;20.728;2023-05-10T09:31:44;4.85;;;2.20;;
17983;SDS011;9117;52.420;20.728;2023-05-10T09:34:17;6.82;;;2.05;;
17983;SDS011;9117;52.420;20.728;2023-05-10T09:36:57;4.72;;;2.25;;
17983;SDS011;9117;52.420;20.728;2023-05-10T09:39:31;9.73;;;2.22;;
17983;SDS011;9117;52.420;20.728;2023-05-10T09:41:59;3.92;;;2.20;;
17983;SDS011;9117;52.420;20.728;2023-05-10T09:44:31;12.23;;;2.50;;
17983;SDS011;9117;52.420;20.728;2023-05-10T09:47:00;3.80;;;2.20;;
17983;SDS011;9117;52.420;20.728;2023-05-10T09:49:28;5.57;;;2.50;;
17983;SDS011;9117;52.420;20.728;2023-05-10T09:52:01;7.53;;;2.17;;
17983;SDS011;9117;52.420;20.728;2023-05-10T09:54:30;7.68;;;2.47;;
17983;SDS011;9117;52.420;20.728;2023-05-10T09:56:59;3.20;;;1.70;;
17983;SDS011;9117;52.420;20.728;2023-05-10T09:59:28;3.88;;;1.83;;
17983;SDS011;9117;52.420;20.728;2023-05-10T10:01:57;4.93;;;2.15;;
17983;SDS011;9117;52.420;20.728;2023-05-10T10:04:27;6.15;;;2.38;;
17983;SDS011;9117;52.420;20.728;2023-05-10T10:06:59;7.78;;;2.20;;
17983;SDS011;9117;52.420;20.728;2023-05-10T10:09:32;6.85;;;2.28;;
17983;SDS011;9117;52.420;20.728;2023-05-10T10:12:02;3.50;;;1.80;;
17983;SDS011;9117;52.420;20.728;2023-05-10T10:14:31;2.70;;;2.00;;
17983;SDS011;9117;52.420;20.728;2023-05-10T10:17:00;4.78;;;1.95;;
17983;SDS011;9117;52.420;20.728;2023-05-10T10:19:32;2.85;;;1.77;;
17983;SDS011;9117;52.420;20.728;2023-05-10T10:22:02;6.78;;;2.38;;
17983;SDS011;9117;52.420;20.728;2023-05-10T10:24:32;6.70;;;2.78;;
17983;SDS011;9117;52.420;20.728;2023-05-10T10:27:02;4.10;;;1.80;;
17983;SDS011;9117;52.420;20.728;2023-05-10T10:29:40;5.35;;;2.25;;
17983;SDS011;9117;52.420;20.728;2023-05-10T10:32:21;6.90;;;2.30;;
17983;SDS011;9117;52.420;20.728;2023-05-10T10:34:55;3.15;;;1.98;;
17983;SDS011;9117;52.420;20.728;2023-05-10T10:37:24;4.00;;;2.55;;
17983;SDS011;9117;52.420;20.728;2023-05-10T10:40:23;3.55;;;1.80;;
17983;SDS011;9117;52.420;20.728;2023-05-10T10:42:53;6.78;;;2.40;;
17983;SDS011;9117;52.420;20.728;2023-05-10T10:45:22;4.13;;;1.95;;
17983;SDS011;9117;52.420;20.728;2023-05-10T10:50:57;2.90;;;1.88;;
17983;SDS011;9117;52.420;20.728;2023-05-10T10:53:26;2.95;;;2.00;;
17983;SDS011;9117;52.420;20.728;2023-05-10T10:56:03;3.78;;;2.40;;
17983;SDS011;9117;52.420;20.728;2023-05-10T10:58:35;4.55;;;2.08;;
17983;SDS011;9117;52.420;20.728;2023-05-10T11:01:12;4.63;;;2.67;;
17983;SDS011;9117;52.420;20.728;2023-05-10T11:03:54;3.35;;;2.25;;
17983;SDS011;9117;52.420;20.728;2023-05-10T11:06:38;3.55;;;2.15;;
17983;SDS011;9117;52.420;20.728;2023-05-10T11:09:06;6.60;;;2.58;;
17983;SDS011;9117;52.420;20.728;2023-05-10T11:11:37;15.18;;;2.30;;
17983;SDS011;9117;52.420;20.728;2023-05-10T11:14:19;3.78;;;2.03;;
17983;SDS011;9117;52.420;20.728;2023-05-10T11:16:48;2.72;;;2.10;;
17983;SDS011;9117;52.420;20.728;2023-05-10T11:19:16;8.20;;;2.40;;
17983;SDS011;9117;52.420;20.728;2023-05-10T11:21:46;8.05;;;2.50;;
17983;SDS011;9117;52.420;20.728;2023-05-10T11:24:16;7.13;;;2.20;;
17983;SDS011;9117;52.420;20.728;2023-05-10T11:26:48;4.70;;;2.10;;
17983;SDS011;9117;52.420;20.728;2023-05-10T11:29:17;5.15;;;2.20;;
17983;SDS011;9117;52.420;20.728;2023-05-10T11:31:46;2.38;;;1.65;;
17983;SDS011;9117;52.420;20.728;2023-05-10T11:34:24;5.55;;;1.80;;
17983;SDS011;9117;52.420;20.728;2023-05-10T11:36:54;15.15;;;3.47;;
17983;SDS011;9117;52.420;20.728;2023-05-10T11:39:25;7.15;;;2.08;;
17983;SDS011;9117;52.420;20.728;2023-05-10T11:41:56;5.10;;;2.25;;
17983;SDS011;9117;52.420;20.728;2023-05-10T11:44:28;4.30;;;2.03;;
17983;SDS011;9117;52.420;20.728;2023-05-10T11:46:58;3.63;;;2.00;;
17983;SDS011;9117;52.420;20.728;2023-05-10T11:49:26;8.65;;;2.30;;
17983;SDS011;9117;52.420;20.728;2023-05-10T11:52:03;4.15;;;2.30;;
17983;SDS011;9117;52.420;20.728;2023-05-10T11:54:31;3.95;;;2.03;;
17983;SDS011;9117;52.420;20.728;2023-05-10T11:57:02;2.88;;;2.10;;
17983;SDS011;9117;52.420;20.728;2023-05-10T11:59:31;4.55;;;2.05;;
17983;SDS011;9117;52.420;20.728;2023-05-10T12:01:59;5.55;;;2.20;;
17983;SDS011;9117;52.420;20.728;2023-05-10T12:04:28;9.52;;;2.38;;
17983;SDS011;9117;52.420;20.728;2023-05-10T12:06:56;6.85;;;2.65;;
17983;SDS011;9117;52.420;20.728;2023-05-10T12:09:25;7.30;;;2.28;;
17983;SDS011;9117;52.420;20.728;2023-05-10T12:11:56;4.22;;;2.10;;
17983;SDS011;9117;52.420;20.728;2023-05-10T12:14:25;3.80;;;2.10;;
17983;SDS011;9117;52.420;20.728;2023-05-10T12:16:55;7.28;;;2.10;;
17983;SDS011;9117;52.420;20.728;2023-05-10T12:19:24;4.57;;;1.90;;
17983;SDS011;9117;52.420;20.728;2023-05-10T12:21:53;3.90;;;1.80;;
17983;SDS011;9117;52.420;20.728;2023-05-10T12:24:21;4.07;;;2.42;;
17983;SDS011;9117;52.420;20.728;2023-05-10T12:26:50;3.67;;;2.28;;
17983;SDS011;9117;52.420;20.728;2023-05-10T12:29:19;10.15;;;2.05;;
17983;SDS011;9117;52.420;20.728;2023-05-10T12:31:56;11.02;;;2.38;;
17983;SDS011;9117;52.420;20.728;2023-05-10T12:34:26;3.15;;;1.75;;
17983;SDS011;9117;52.420;20.728;2023-05-10T12:36:57;4.70;;;2.20;;
17983;SDS011;9117;52.420;20.728;2023-05-10T12:39:25;5.47;;;2.03;;
17983;SDS011;9117;52.420;20.728;2023-05-10T12:41:53;4.57;;;1.92;;
17983;SDS011;9117;52.420;20.728;2023-05-10T12:44:21;4.45;;;2.05;;
17983;SDS011;9117;52.420;20.728;2023-05-10T12:46:49;3.40;;;2.10;;
17983;SDS011;9117;52.420;20.728;2023-05-10T12:49:19;5.05;;;2.13;;
17983;SDS011;9117;52.420;20.728;2023-05-10T12:51:47;2.90;;;1.77;;
17983;SDS011;9117;52.420;20.728;2023-05-10T12:54:15;4.05;;;1.98;;
17983;SDS011;9117;52.420;20.728;2023-05-10T12:56:44;4.45;;;2.22;;
17983;SDS011;9117;52.420;20.728;2023-05-10T12:59:12;4.40;;;1.90;;
17983;SDS011;9117;52.420;20.728;2023-05-10T13:01:40;4.20;;;2.20;;
17983;SDS011;9117;52.420;20.728;2023-05-10T13:04:08;3.63;;;2.13;;
17983;SDS011;9117;52.420;20.728;2023-05-10T13:06:38;9.15;;;2.28;;
17983;SDS011;9117;52.420;20.728;2023-05-10T13:09:06;6.13;;;1.80;;
17983;SDS011;9117;52.420;20.728;2023-05-10T13:11:34;6.00;;;1.70;;
17983;SDS011;9117;52.420;20.728;2023-05-10T13:14:03;9.98;;;2.40;;
17983;SDS011;9117;52.420;20.728;2023-05-10T13:16:31;6.95;;;2.20;;
17983;SDS011;9117;52.420;20.728;2023-05-10T13:18:59;5.03;;;1.90;;
17983;SDS011;9117;52.420;20.728;2023-05-10T13:21:28;3.22;;;2.20;;
17983;SDS011;9117;52.420;20.728;2023-05-10T13:23:58;6.00;;;2.55;;
17983;SDS011;9117;52.420;20.728;2023-05-10T13:26:26;6.43;;;2.05;;
17983;SDS011;9117;52.420;20.728;2023-05-10T13:28:54;3.88;;;2.13;;
17983;SDS011;9117;52.420;20.728;2023-05-10T13:31:23;4.45;;;2.25;;
17983;SDS011;9117;52.420;20.728;2023-05-10T13:33:51;5.13;;;1.88;;
17983;SDS011;9117;52.420;20.728;2023-05-10T13:36:19;4.97;;;1.88;;
17983;SDS011;9117;52.420;20.728;2023-05-10T13:38:49;3.45;;;1.65;;
17983;SDS011;9117;52.420;20.728;2023-05-10T13:41:18;2.53;;;1.80;;
17983;SDS011;9117;52.420;20.728;2023-05-10T13:43:47;2.80;;;1.67;;
17983;SDS011;9117;52.420;20.728;2023-05-10T13:46:15;4.78;;;2.00;;
17983;SDS011;9117;52.420;20.728;2023-05-10T13:48:44;5.75;;;2.15;;
17983;SDS011;9117;52.420;20.728;2023-05-10T13:51:12;3.58;;;1.95;;
17983;SDS011;9117;52.420;20.728;2023-05-10T13:53:40;7.53;;;2.15;;
17983;SDS011;9117;52.420;20.728;2023-05-10T13:56:08;4.32;;;2.50;;
17983;SDS011;9117;52.420;20.728;2023-05-10T13:58:38;4.57;;;1.98;;
17983;SDS011;9117;52.420;20.728;2023-05-10T14:01:06;5.57;;;1.95;;
17983;SDS011;9117;52.420;20.728;2023-05-10T14:03:34;2.97;;;2.20;;
17983;SDS011;9117;52.420;20.728;2023-05-10T14:06:03;5.75;;;2.28;;
17983;SDS011;9117;52.420;20.728;2023-05-10T14:08:33;4.85;;;2.10;;
17983;SDS011;9117;52.420;20.728;2023-05-10T14:11:02;5.15;;;2.20;;
17983;SDS011;9117;52.420;20.728;2023-05-10T14:13:30;4.07;;;2.00;;
17983;SDS011;9117;52.420;20.728;2023-05-10T14:16:00;5.07;;;1.95;;
17983;SDS011;9117;52.420;20.728;2023-05-10T14:18:28;5.07;;;2.03;;
17983;SDS011;9117;52.420;20.728;2023-05-10T14:20:57;7.35;;;2.13;;
17983;SDS011;9117;52.420;20.728;2023-05-10T14:23:25;3.45;;;2.15;;
17983;SDS011;9117;52.420;20.728;2023-05-10T14:25:55;6.05;;;2.15;;
17983;SDS011;9117;52.420;20.728;2023-05-10T14:28:23;3.97;;;2.10;;
17983;SDS011;9117;52.420;20.728;2023-05-10T14:30:52;5.82;;;2.08;;
17983;SDS011;9117;52.420;20.728;2023-05-10T14:33:21;4.15;;;2.25;;
17983;SDS011;9117;52.420;20.728;2023-05-10T14:35:49;5.18;;;2.38;;
17983;SDS011;9117;52.420;20.728;2023-05-10T14:38:17;6.88;;;2.10;;
17983;SDS011;9117;52.420;20.728;2023-05-10T14:40:46;5.45;;;2.03;;
17983;SDS011;9117;52.420;20.728;2023-05-10T14:43:14;3.65;;;2.33;;
17983;SDS011;9117;52.420;20.728;2023-05-10T14:45:42;4.50;;;1.77;;
17983;SDS011;9117;52.420;20.728;2023-05-10T14:48:11;8.35;;;2.05;;
17983;SDS011;9117;52.420;20.728;2023-05-10T14:50:43;4.68;;;2.45;;
17983;SDS011;9117;52.420;20.728;2023-05-10T14:53:11;4.03;;;2.00;;
17983;SDS011;9117;52.420;20.728;2023-05-10T14:55:39;7.10;;;2.35;;
17983;SDS011;9117;52.420;20.728;2023-05-10T14:58:07;4.85;;;1.90;;
17983;SDS011;9117;52.420;20.728;2023-05-10T15:00:36;3.60;;;1.98;;
17983;SDS011;9117;52.420;20.728;2023-05-10T15:03:04;3.03;;;1.75;;